createdAt,value
2017-12-05T00:01:47.620Z,22.40
2017-12-05T00:04:14.343Z,20.97
2017-12-05T00:06:40.341Z,21.03
2017-12-05T00:09:06.692Z,19.07
2017-12-05T00:11:35.231Z,21.03
2017-12-05T00:14:02.736Z,21.10
2017-12-05T00:16:30.496Z,23.17
2017-12-05T00:18:59.232Z,20.40
2017-12-05T00:21:26.227Z,20.50
2017-12-05T00:23:53.044Z,20.93
2017-12-05T00:26:21.250Z,19.87
2017-12-05T00:28:47.250Z,20.40
2017-12-05T00:31:17.254Z,21.80
2017-12-05T00:33:43.839Z,21.33
2017-12-05T00:36:11.778Z,21.57
2017-12-05T00:38:38.721Z,23.33
2017-12-05T00:41:06.046Z,21.60
2017-12-05T00:43:32.936Z,22.00
2017-12-05T00:45:59.325Z,21.20
2017-12-05T00:48:25.647Z,22.57
2017-12-05T00:50:52.209Z,20.90
2017-12-05T00:53:18.215Z,24.50
2017-12-05T00:55:45.627Z,22.47
2017-12-05T00:58:12.861Z,22.00
2017-12-05T01:00:39.251Z,22.07
2017-12-05T01:03:07.695Z,22.80
2017-12-05T01:05:33.687Z,23.40
2017-12-05T01:07:59.622Z,23.50
2017-12-05T01:10:26.486Z,23.90
2017-12-05T01:12:52.448Z,22.80
2017-12-05T01:15:19.971Z,23.27
2017-12-05T01:17:46.415Z,22.97
2017-12-05T01:20:16.659Z,23.50
2017-12-05T01:22:43.622Z,22.43
2017-12-05T01:25:10.198Z,24.53
2017-12-05T01:27:38.879Z,20.97
2017-12-05T01:30:07.657Z,21.40
2017-12-05T01:32:34.315Z,23.50
2017-12-05T01:35:02.688Z,22.20
2017-12-05T01:37:29.197Z,22.77
2017-12-05T01:39:55.879Z,21.43
2017-12-05T01:42:23.270Z,24.90
2017-12-05T01:44:49.456Z,24.30
2017-12-05T01:47:16.392Z,22.67
2017-12-05T01:49:43.308Z,23.93
2017-12-05T01:52:09.249Z,22.87
2017-12-05T01:54:35.218Z,23.83
2017-12-05T01:57:01.631Z,22.27
2017-12-05T01:59:27.984Z,22.50
2017-12-05T02:01:54.466Z,22.03
2017-12-05T02:04:21.320Z,21.20
2017-12-05T02:06:48.893Z,22.53
2017-12-05T02:09:15.046Z,22.50
2017-12-05T02:11:41.572Z,22.40
2017-12-05T02:14:07.642Z,24.67
2017-12-05T02:16:35.682Z,22.77
2017-12-05T02:19:02.457Z,21.87
2017-12-05T02:21:29.036Z,25.00
2017-12-05T02:23:55.035Z,21.63
2017-12-05T02:26:21.348Z,22.40
2017-12-05T02:28:48.723Z,24.20
2017-12-05T02:31:15.498Z,21.40
2017-12-05T02:33:42.040Z,22.40
2017-12-05T02:36:08.671Z,21.60
2017-12-05T02:38:35.455Z,23.20
2017-12-05T02:41:08.449Z,22.73
2017-12-05T02:43:36.875Z,22.50
2017-12-05T02:46:02.864Z,21.50
2017-12-05T02:48:29.649Z,23.43
2017-12-05T02:50:56.367Z,21.83
2017-12-05T02:53:23.163Z,19.70
2017-12-05T02:55:51.056Z,23.07
2017-12-05T02:58:17.803Z,24.13
2017-12-05T03:00:43.859Z,23.10
2017-12-05T03:03:09.868Z,24.27
2017-12-05T03:05:36.592Z,24.37
2017-12-05T03:08:02.564Z,22.23
2017-12-05T03:10:30.144Z,21.90
2017-12-05T03:12:56.183Z,23.87
2017-12-05T03:15:22.993Z,23.27
2017-12-05T03:17:53.005Z,24.47
2017-12-05T03:20:18.937Z,22.17
2017-12-05T03:22:46.976Z,22.67
2017-12-05T03:25:14.225Z,22.10
2017-12-05T03:27:41.055Z,23.13
2017-12-05T03:30:07.907Z,21.53
2017-12-05T03:32:33.880Z,25.30
2017-12-05T03:35:12.228Z,22.80
2017-12-05T03:37:42.266Z,22.47
2017-12-05T03:40:09.392Z,20.80
2017-12-05T03:42:36.345Z,20.67
2017-12-05T03:45:04.016Z,23.93
2017-12-05T03:47:29.978Z,22.80
2017-12-05T03:49:56.829Z,23.93
2017-12-05T03:52:23.145Z,20.37
2017-12-05T03:54:49.843Z,21.97
2017-12-05T03:57:17.323Z,22.47
2017-12-05T03:59:43.288Z,23.33
2017-12-05T04:02:09.270Z,22.40
2017-12-05T04:04:37.501Z,24.23
2017-12-05T04:07:04.816Z,21.50
2017-12-05T04:09:31.283Z,22.30
2017-12-05T04:11:57.315Z,23.17
2017-12-05T04:14:24.521Z,22.50
2017-12-05T04:16:53.150Z,22.13
2017-12-05T04:19:19.264Z,20.80
2017-12-05T04:21:46.062Z,22.80
2017-12-05T04:24:12.770Z,22.50
2017-12-05T04:26:41.062Z,23.50
2017-12-05T04:29:07.407Z,21.67
2017-12-05T04:31:33.488Z,23.47
2017-12-05T04:33:59.419Z,22.67
2017-12-05T04:36:26.347Z,22.90
2017-12-05T04:38:54.524Z,22.73
2017-12-05T04:43:52.672Z,21.77
2017-12-05T04:46:21.542Z,21.73
2017-12-05T04:48:48.428Z,22.90
2017-12-05T04:51:16.420Z,23.03
2017-12-05T04:53:44.310Z,23.00
2017-12-05T04:56:10.303Z,20.93
2017-12-05T04:58:40.260Z,20.90
2017-12-05T05:01:06.831Z,21.90
2017-12-05T05:03:32.752Z,22.70
2017-12-05T05:05:59.693Z,23.17
2017-12-05T05:08:25.672Z,22.17
2017-12-05T05:10:51.656Z,22.00
2017-12-05T05:13:17.599Z,21.70
2017-12-05T05:15:43.686Z,23.10
2017-12-05T05:18:09.727Z,23.47
2017-12-05T05:20:36.411Z,25.67
2017-12-05T05:23:03.136Z,21.83
2017-12-05T05:25:30.061Z,25.67
2017-12-05T05:27:56.966Z,25.20
2017-12-05T05:30:22.931Z,24.80
2017-12-05T05:32:48.892Z,24.30
2017-12-05T05:35:18.093Z,21.53
2017-12-05T05:37:45.349Z,23.40
2017-12-05T05:40:11.401Z,26.10
2017-12-05T05:42:37.398Z,24.33
2017-12-05T05:45:03.367Z,23.17
2017-12-05T05:47:30.028Z,24.83
2017-12-05T05:49:56.052Z,25.23
2017-12-05T05:52:22.885Z,23.23
2017-12-05T05:54:52.369Z,23.53
2017-12-05T05:57:19.831Z,23.33
2017-12-05T05:59:47.329Z,25.80
2017-12-05T06:02:14.982Z,24.93
2017-12-05T06:04:41.035Z,24.23
2017-12-05T06:07:08.449Z,23.90
2017-12-05T06:09:35.258Z,23.07
2017-12-05T06:12:04.015Z,23.93
2017-12-05T06:14:30.898Z,23.30
2017-12-05T06:16:58.469Z,27.13
2017-12-05T06:19:24.529Z,25.67
2017-12-05T06:21:51.891Z,26.43
2017-12-05T06:24:19.657Z,25.40
2017-12-05T06:26:46.315Z,24.23
2017-12-05T06:29:12.624Z,25.00
2017-12-05T06:31:39.509Z,22.20
2017-12-05T06:34:07.868Z,24.67
2017-12-05T06:36:37.623Z,23.93
2017-12-05T06:39:08.542Z,24.13
2017-12-05T06:41:37.396Z,22.93
2017-12-05T06:44:05.863Z,23.33
2017-12-05T06:46:34.643Z,23.83
2017-12-05T06:49:00.616Z,26.10
2017-12-05T06:51:28.812Z,26.30
2017-12-05T06:53:54.837Z,25.10
2017-12-05T06:56:20.867Z,23.23
2017-12-05T06:58:51.401Z,28.40
2017-12-05T07:01:20.126Z,25.10
2017-12-05T07:03:46.146Z,24.53
2017-12-05T07:06:13.879Z,25.90
2017-12-05T07:08:40.709Z,25.63
2017-12-05T07:11:06.681Z,24.53
2017-12-05T07:13:34.057Z,25.50
2017-12-05T07:16:00.287Z,24.70
2017-12-05T07:18:26.612Z,23.03
2017-12-05T07:23:40.977Z,25.53
2017-12-05T07:26:10.180Z,23.73
2017-12-05T07:28:39.838Z,21.70
2017-12-05T07:31:06.071Z,21.33
2017-12-05T07:33:47.947Z,22.90
2017-12-05T07:38:57.062Z,23.57
2017-12-05T07:41:23.914Z,21.30
2017-12-05T07:43:57.324Z,22.70
2017-12-05T07:46:33.160Z,22.30
2017-12-05T07:49:00.608Z,20.63
2017-12-05T07:51:28.743Z,20.63
2017-12-05T07:53:55.677Z,21.60
2017-12-05T07:56:25.052Z,22.57
2017-12-05T07:58:52.784Z,19.50
2017-12-05T08:01:20.069Z,19.70
2017-12-05T08:03:47.634Z,18.67
2017-12-05T08:06:17.551Z,20.50
2017-12-05T08:08:45.528Z,19.10
2017-12-05T08:11:12.552Z,18.03
2017-12-05T08:13:39.526Z,18.50
2017-12-05T08:16:06.365Z,17.27
2017-12-05T08:18:33.968Z,18.53
2017-12-05T08:21:04.834Z,17.97
2017-12-05T08:23:31.256Z,18.07
2017-12-05T08:25:57.275Z,17.50
2017-12-05T08:28:24.883Z,18.00
2017-12-05T08:30:51.707Z,18.27
2017-12-05T08:33:23.633Z,15.90
2017-12-05T08:35:54.125Z,17.70
2017-12-05T08:38:23.565Z,17.47
2017-12-05T08:40:52.645Z,17.67
2017-12-05T08:43:35.227Z,17.20
2017-12-05T08:46:01.512Z,16.20
2017-12-05T08:48:29.530Z,16.43
2017-12-05T08:50:58.268Z,16.03
2017-12-05T08:53:24.372Z,16.23
2017-12-05T08:55:50.363Z,15.93
2017-12-05T08:58:17.195Z,15.77
2017-12-05T09:00:44.869Z,16.30
2017-12-05T09:03:11.993Z,16.83
2017-12-05T09:05:39.323Z,16.00
2017-12-05T09:08:10.202Z,15.83
2017-12-05T09:10:36.866Z,14.67
2017-12-05T09:13:06.308Z,15.43
2017-12-05T09:15:33.142Z,14.80
2017-12-05T09:18:00.096Z,14.50
2017-12-05T09:20:27.765Z,13.30
2017-12-05T09:22:53.950Z,14.50
2017-12-05T09:25:19.946Z,13.30
2017-12-05T09:27:45.903Z,14.57
2017-12-05T09:30:13.196Z,13.60
2017-12-05T09:32:39.425Z,14.33
2017-12-05T09:35:05.468Z,14.03
2017-12-05T09:37:32.511Z,12.73
2017-12-05T09:39:58.547Z,13.40
2017-12-05T09:42:24.496Z,12.07
2017-12-05T09:44:50.623Z,13.60
2017-12-05T09:47:17.423Z,14.20
2017-12-05T09:49:43.716Z,13.07
2017-12-05T09:52:09.667Z,12.67
2017-12-05T09:54:35.660Z,12.33
2017-12-05T09:57:01.834Z,13.00
2017-12-05T09:59:27.872Z,13.10
2017-12-05T10:01:53.870Z,13.33
2017-12-05T10:04:20.688Z,13.70
2017-12-05T10:06:47.279Z,12.87
2017-12-05T10:09:13.296Z,13.43
2017-12-05T10:11:39.289Z,11.60
2017-12-05T10:14:05.452Z,12.80
2017-12-05T10:16:31.435Z,12.57
2017-12-05T10:18:57.383Z,12.33
2017-12-05T10:21:23.420Z,13.27
2017-12-05T10:23:49.418Z,13.27
2017-12-05T10:26:15.446Z,13.37
2017-12-05T10:28:41.467Z,13.00
2017-12-05T10:31:08.202Z,12.50
2017-12-05T10:33:34.207Z,11.77
2017-12-05T10:36:00.883Z,11.77
2017-12-05T10:38:27.351Z,12.80
2017-12-05T10:40:53.915Z,11.73
2017-12-05T10:43:20.655Z,13.60
2017-12-05T10:45:46.741Z,11.70
2017-12-05T10:48:15.883Z,13.33
2017-12-05T10:50:42.726Z,13.57
2017-12-05T10:55:43.276Z,13.23
2017-12-05T10:58:10.211Z,13.97
2017-12-05T11:00:36.975Z,12.60
2017-12-05T11:03:03.163Z,12.93
2017-12-05T11:05:29.244Z,14.27
2017-12-05T11:07:55.683Z,12.63
2017-12-05T11:10:21.818Z,13.87
2017-12-05T11:12:50.378Z,14.33
2017-12-05T11:15:20.201Z,13.37
2017-12-05T11:17:49.345Z,13.50
2017-12-05T11:20:15.320Z,13.17
2017-12-05T11:22:41.429Z,13.03
2017-12-05T11:25:08.392Z,12.93
2017-12-05T11:30:07.506Z,12.23
2017-12-05T11:32:34.318Z,12.00
2017-12-05T11:35:03.251Z,13.53
2017-12-05T11:37:30.143Z,14.27
2017-12-05T11:39:56.196Z,13.40
2017-12-05T11:42:22.175Z,15.13
2017-12-05T11:44:48.944Z,14.40
2017-12-05T11:47:20.472Z,13.10
2017-12-05T11:49:52.347Z,14.90
2017-12-05T11:52:22.067Z,13.50
2017-12-05T11:54:49.132Z,14.10
2017-12-05T11:57:23.179Z,14.57
2017-12-05T11:59:49.533Z,14.43
2017-12-05T12:02:17.991Z,15.30
2017-12-05T12:04:45.119Z,14.00
2017-12-05T12:07:11.436Z,15.17
2017-12-05T12:09:41.078Z,15.40
2017-12-05T12:12:08.142Z,13.53
2017-12-05T12:14:35.159Z,15.90
2017-12-05T12:17:01.222Z,13.27
2017-12-05T12:19:27.256Z,15.37
2017-12-05T12:21:53.387Z,15.33
2017-12-05T12:24:21.595Z,14.37
2017-12-05T12:26:48.319Z,14.73
2017-12-05T12:29:16.569Z,13.30
2017-12-05T12:31:42.591Z,14.33
2017-12-05T12:34:08.828Z,13.30
2017-12-05T12:36:35.595Z,14.10
2017-12-05T12:39:01.572Z,13.90
2017-12-05T12:41:28.511Z,14.20
2017-12-05T12:43:57.235Z,12.70
2017-12-05T12:46:24.994Z,14.07
2017-12-05T12:48:52.158Z,13.80
2017-12-05T12:51:19.566Z,13.10
2017-12-05T12:53:45.546Z,12.50
2017-12-05T12:56:11.494Z,12.03
2017-12-05T12:58:39.358Z,12.80
2017-12-05T13:01:06.138Z,13.97
2017-12-05T13:03:38.094Z,12.90
2017-12-05T13:06:05.855Z,13.10
2017-12-05T13:08:33.698Z,13.43
2017-12-05T13:11:02.040Z,12.30
2017-12-05T13:13:30.982Z,13.13
2017-12-05T13:15:59.078Z,11.57
2017-12-05T13:18:25.996Z,12.40
2017-12-05T13:20:55.323Z,13.20
2017-12-05T13:25:57.178Z,12.07
2017-12-05T13:28:23.137Z,12.40
2017-12-05T13:30:50.033Z,12.23
2017-12-05T13:33:16.031Z,13.10
2017-12-05T13:35:43.756Z,11.80
2017-12-05T13:38:10.573Z,11.80
2017-12-05T13:40:37.547Z,13.37
2017-12-05T13:43:04.542Z,12.70
2017-12-05T13:45:30.601Z,13.90
2017-12-05T13:47:57.141Z,14.30
2017-12-05T13:50:23.131Z,12.60
2017-12-05T13:52:53.195Z,11.63
2017-12-05T13:55:19.205Z,13.20
2017-12-05T13:57:45.243Z,12.50
2017-12-05T14:00:12.244Z,13.50
2017-12-05T14:02:38.234Z,13.03
2017-12-05T14:05:06.768Z,12.10
2017-12-05T14:07:33.571Z,13.23
2017-12-05T14:10:02.027Z,12.90
2017-12-05T14:12:29.384Z,14.40
2017-12-05T14:14:55.709Z,13.27
2017-12-05T14:17:23.279Z,12.70
2017-12-05T14:19:49.272Z,13.60
2017-12-05T14:22:16.243Z,12.17
2017-12-05T14:24:42.721Z,13.47
2017-12-05T14:27:10.475Z,13.60
2017-12-05T14:29:36.912Z,12.97
2017-12-05T14:32:03.036Z,12.90
2017-12-05T14:34:29.780Z,13.03
2017-12-05T14:36:56.789Z,12.90
2017-12-05T14:41:53.415Z,12.80
2017-12-05T14:44:20.094Z,11.90
2017-12-05T14:46:46.167Z,12.60
2017-12-05T14:49:12.243Z,12.20
2017-12-05T14:51:38.257Z,11.63
2017-12-05T14:54:04.265Z,12.30
2017-12-05T14:56:30.286Z,13.57
2017-12-05T14:58:56.287Z,11.93
2017-12-05T15:01:22.271Z,11.50
2017-12-05T15:03:48.497Z,12.50
2017-12-05T15:06:15.389Z,12.77
2017-12-05T15:08:42.431Z,13.23
2017-12-05T15:11:08.430Z,14.50
2017-12-05T15:13:34.426Z,13.53
2017-12-05T15:16:00.375Z,14.10
2017-12-05T15:18:26.911Z,14.17
2017-12-05T15:20:53.886Z,13.30
2017-12-05T15:23:20.650Z,12.80
2017-12-05T15:25:47.343Z,13.93
2017-12-05T15:28:13.337Z,13.63
2017-12-05T15:30:39.967Z,13.33
2017-12-05T15:33:05.934Z,13.33
2017-12-05T15:35:31.890Z,12.63
2017-12-05T15:37:57.856Z,14.77
2017-12-05T15:40:23.839Z,15.07
2017-12-05T15:42:49.879Z,13.67
2017-12-05T15:45:16.854Z,15.03
2017-12-05T15:47:44.843Z,14.77
2017-12-05T15:50:10.773Z,15.40
2017-12-05T15:52:37.619Z,15.40
2017-12-05T15:55:05.338Z,14.83
2017-12-05T15:57:32.156Z,14.70
2017-12-05T15:59:58.862Z,14.50
2017-12-05T16:02:26.231Z,14.60
2017-12-05T16:04:52.219Z,14.60
2017-12-05T16:07:19.194Z,14.47
2017-12-05T16:09:46.041Z,15.07
2017-12-05T16:12:13.381Z,15.57
2017-12-05T16:14:39.479Z,18.00
2017-12-05T16:17:05.424Z,17.60
2017-12-05T16:19:31.674Z,14.93
2017-12-05T16:21:58.056Z,16.10
2017-12-05T16:24:24.048Z,15.23
2017-12-05T16:26:50.023Z,16.87
2017-12-05T16:29:18.579Z,16.77
2017-12-05T16:31:44.880Z,17.40
2017-12-05T16:34:11.342Z,18.37
2017-12-05T16:36:40.409Z,16.13
2017-12-05T16:39:06.621Z,18.40
2017-12-05T16:41:32.639Z,17.63
2017-12-05T16:43:58.867Z,20.10
2017-12-05T16:46:26.582Z,17.87
2017-12-05T16:48:52.603Z,17.50
2017-12-05T16:51:20.748Z,17.10
2017-12-05T16:53:48.290Z,17.63
2017-12-05T16:56:16.278Z,18.40
2017-12-05T16:58:43.442Z,20.10
2017-12-05T17:01:10.266Z,19.07
2017-12-05T17:03:36.247Z,19.50
2017-12-05T17:06:03.752Z,18.33
2017-12-05T17:08:29.831Z,18.70
2017-12-05T17:10:55.958Z,18.10
2017-12-05T17:13:22.698Z,17.73
2017-12-05T17:15:50.099Z,18.97
2017-12-05T17:18:16.086Z,17.60
2017-12-05T17:20:43.730Z,17.90
2017-12-05T17:23:09.790Z,19.07
2017-12-05T17:25:35.784Z,18.50
2017-12-05T17:28:01.997Z,21.90
2017-12-05T17:30:29.933Z,17.27
2017-12-05T17:32:57.827Z,18.00
2017-12-05T17:35:23.781Z,17.40
2017-12-05T17:37:50.553Z,18.47
2017-12-05T17:40:17.314Z,18.50
2017-12-05T17:42:44.005Z,18.10
2017-12-05T17:45:09.965Z,17.20
2017-12-05T17:47:36.741Z,20.37
2017-12-05T17:50:02.895Z,17.47
2017-12-05T17:52:28.826Z,18.23
2017-12-05T17:54:54.776Z,17.33
2017-12-05T17:57:20.805Z,20.20
2017-12-05T17:59:46.810Z,18.90
2017-12-05T18:02:12.821Z,19.00
2017-12-05T18:04:38.756Z,17.60
2017-12-05T18:07:05.512Z,18.70
2017-12-05T18:09:31.892Z,18.57
2017-12-05T18:11:57.849Z,17.83
2017-12-05T18:14:24.514Z,18.93
2017-12-05T18:16:50.798Z,19.40
2017-12-05T18:19:16.853Z,18.50
2017-12-05T18:21:42.989Z,18.63
2017-12-05T18:24:09.000Z,17.17
2017-12-05T18:26:34.970Z,17.97
2017-12-05T18:29:00.892Z,18.23
2017-12-05T18:31:26.781Z,18.13
2017-12-05T18:33:53.480Z,16.50
2017-12-05T18:36:19.482Z,19.27
2017-12-05T18:38:45.451Z,16.60
2017-12-05T18:41:12.164Z,17.03
2017-12-05T18:43:38.574Z,16.73
2017-12-05T18:46:04.715Z,19.20
2017-12-05T18:48:30.792Z,18.37
2017-12-05T18:50:56.740Z,17.43
2017-12-05T18:53:22.660Z,18.10
2017-12-05T18:55:48.635Z,21.50
2017-12-05T18:58:15.294Z,20.30
2017-12-05T19:00:41.258Z,19.77
2017-12-05T19:03:07.239Z,20.17
2017-12-05T19:05:33.165Z,22.17
2017-12-05T19:07:59.196Z,18.17
2017-12-05T19:10:25.180Z,17.40
2017-12-05T19:12:51.853Z,17.00
2017-12-05T19:15:17.809Z,17.83
2017-12-05T19:17:43.738Z,17.83
2017-12-05T19:20:09.649Z,17.30
2017-12-05T19:22:37.067Z,18.90
2017-12-05T19:25:03.974Z,18.37
2017-12-05T19:27:29.943Z,19.23
2017-12-05T19:29:55.839Z,19.87
2017-12-05T19:32:21.902Z,17.33
2017-12-05T19:34:50.470Z,16.40
2017-12-05T19:37:17.206Z,18.73
2017-12-05T19:39:43.126Z,17.47
2017-12-05T19:42:09.131Z,18.10
2017-12-05T19:44:35.163Z,16.83
2017-12-05T19:47:01.125Z,17.13
2017-12-05T19:49:27.063Z,19.80
2017-12-05T19:51:53.046Z,16.67
2017-12-05T19:54:19.922Z,19.40
2017-12-05T19:56:46.528Z,18.60
2017-12-05T19:59:12.685Z,18.70
2017-12-05T20:01:38.665Z,17.23
2017-12-05T20:04:05.442Z,18.17
2017-12-05T20:06:31.402Z,17.20
2017-12-05T20:08:57.558Z,17.27
2017-12-05T20:11:26.035Z,17.20
2017-12-05T20:13:51.986Z,17.37
2017-12-05T20:16:18.034Z,16.17
2017-12-05T20:18:44.756Z,18.67
2017-12-05T20:21:11.414Z,18.23
2017-12-05T20:23:37.339Z,16.00
2017-12-05T20:26:04.666Z,16.87
2017-12-05T20:28:32.888Z,16.70
2017-12-05T20:30:59.774Z,17.37
2017-12-05T20:33:25.714Z,17.80
2017-12-05T20:35:51.654Z,15.97
2017-12-05T20:38:21.575Z,16.93
2017-12-05T20:40:48.414Z,18.33
2017-12-05T20:43:17.228Z,17.40
2017-12-05T20:45:43.160Z,16.70
2017-12-05T20:48:09.736Z,18.13
2017-12-05T20:50:36.408Z,16.10
2017-12-05T20:53:05.825Z,17.23
2017-12-05T20:55:33.404Z,19.30
2017-12-05T20:58:00.011Z,19.10
2017-12-05T21:00:32.179Z,18.23
2017-12-05T21:03:03.059Z,16.70
2017-12-05T21:05:31.831Z,17.60
2017-12-05T21:07:57.781Z,18.30
2017-12-05T21:12:57.717Z,19.50
2017-12-05T21:15:24.371Z,16.20
2017-12-05T21:17:51.570Z,18.80
2017-12-05T21:20:21.103Z,19.00
2017-12-05T21:22:49.890Z,17.90
2017-12-05T21:25:18.186Z,17.80
2017-12-05T21:27:45.060Z,18.03
2017-12-05T21:32:47.518Z,17.97
2017-12-05T21:35:13.449Z,17.67
2017-12-05T21:37:39.501Z,17.30
2017-12-05T21:40:06.540Z,18.37
2017-12-05T21:42:32.438Z,16.80
2017-12-05T21:44:59.883Z,19.10
2017-12-05T21:47:25.820Z,17.40
2017-12-05T21:49:51.746Z,18.37
2017-12-05T21:52:18.209Z,16.20
2017-12-05T21:54:44.971Z,17.47
2017-12-05T21:57:11.229Z,16.90
2017-12-05T21:59:37.187Z,18.93
2017-12-05T22:02:06.969Z,18.17
2017-12-05T22:04:32.947Z,18.03
2017-12-05T22:06:59.749Z,18.57
2017-12-05T22:09:30.639Z,18.33
2017-12-05T22:11:58.848Z,19.00
2017-12-05T22:14:28.419Z,18.30
2017-12-05T22:16:57.730Z,17.03
2017-12-05T22:19:26.538Z,17.17
2017-12-05T22:21:53.850Z,18.90
2017-12-05T22:24:20.719Z,16.40
2017-12-05T22:26:48.690Z,18.60
2017-12-05T22:29:19.811Z,18.07
2017-12-05T22:31:47.365Z,17.80
2017-12-05T22:34:13.314Z,19.10
2017-12-05T22:36:39.418Z,17.90
2017-12-05T22:39:05.429Z,19.80
2017-12-05T22:41:31.354Z,18.03
2017-12-05T22:43:59.098Z,18.10
2017-12-05T22:46:25.032Z,17.37
2017-12-05T22:48:50.931Z,19.17
2017-12-05T22:51:16.863Z,16.93
2017-12-05T22:53:45.124Z,17.70
2017-12-05T22:56:11.044Z,18.23
2017-12-05T22:58:36.954Z,17.13
2017-12-05T23:01:03.255Z,17.10
2017-12-05T23:03:30.662Z,18.10
2017-12-05T23:05:58.732Z,18.37
2017-12-05T23:08:27.174Z,19.70
2017-12-05T23:10:55.864Z,19.00
2017-12-05T23:13:21.783Z,18.40
2017-12-05T23:15:48.705Z,17.47
2017-12-05T23:18:15.095Z,17.40
2017-12-05T23:20:41.364Z,17.57
2017-12-05T23:23:11.211Z,18.73
2017-12-05T23:25:37.795Z,18.50
2017-12-05T23:28:04.484Z,17.33
2017-12-05T23:30:30.388Z,18.40
2017-12-05T23:32:56.293Z,16.40
2017-12-05T23:35:22.282Z,18.53
2017-12-05T23:37:52.650Z,18.00
2017-12-05T23:40:18.586Z,17.57
2017-12-05T23:42:46.757Z,16.97
2017-12-05T23:45:14.317Z,17.87
2017-12-05T23:47:42.466Z,19.20
2017-12-05T23:50:23.665Z,16.43
2017-12-05T23:52:49.615Z,17.00
2017-12-05T23:55:15.579Z,16.80
2017-12-05T23:57:41.484Z,16.23
